Pagina principală
METAR-TAF:

METAR-TAF

Aeroporturi :

Hemphill County Airport

Canadian, Texas, Statele Unite ale Americii

Latitudine: 35-54N, longitudine: 100-24W, elevație: 730 m

Observații meteo curente

Raportul a fost făcut în urmă cu 22 de minute, la 22:35 UTC
Vânt 6 kt de la Vest/Sud-vest
Temperatură 34°C
Umiditate 39%
Presiune 1014 hPa
Vizibilitate: 16.1 km
Nori fragmentați la o înălțime de 10000 picior

METAR: KHHF 222235Z AUTO 25006KT 10SM BKN100 34/18 A2995 RMK AO2 T03400178

Ora: 17:57 (22:57 UTC)


TAF: lipsă

Observații și prognoze meteo pentru peste 4.000 de aeroporturi (rapoarte METAR și TAF).

Stațiile disponibile sunt reprezentate pe hartă prin puncte galbene și roșii.

Țineți indicatorul mouse-ului pe punctul dorit pentru a vedea denumirea stației.

Apoi, faceți clic pentru a vedea observațiile și prognozele meteorologice.

Pentru a schimba harta: Pentru mărire, faceți clic pe butoanele verzi cu cruce neagră; pentru micșorare, pe butonul verde cu o liniuță; pentru hărți învecinate, pe săgețile verzi.


METAR-TAF: